sensor_id;sensor_type;location;lat;lon;timestamp;P1;durP1;ratioP1;P2;durP2;ratioP2
36585;SDS011;22591;48.314;11.562;2023-07-30T00:00:33;5.95;;;3.05;;
36585;SDS011;22591;48.314;11.562;2023-07-30T00:02:59;2.80;;;2.60;;
36585;SDS011;22591;48.314;11.562;2023-07-30T00:05:24;3.08;;;2.78;;
36585;SDS011;22591;48.314;11.562;2023-07-30T00:07:50;2.92;;;2.70;;
36585;SDS011;22591;48.314;11.562;2023-07-30T00:10:16;2.65;;;2.55;;
36585;SDS011;22591;48.314;11.562;2023-07-30T00:12:42;2.78;;;2.67;;
36585;SDS011;22591;48.314;11.562;2023-07-30T00:15:07;2.63;;;2.42;;
36585;SDS011;22591;48.314;11.562;2023-07-30T00:17:33;3.03;;;2.50;;
36585;SDS011;22591;48.314;11.562;2023-07-30T00:19:59;2.75;;;2.55;;
36585;SDS011;22591;48.314;11.562;2023-07-30T00:22:24;2.63;;;2.53;;
36585;SDS011;22591;48.314;11.562;2023-07-30T00:24:50;4.13;;;2.45;;
36585;SDS011;22591;48.314;11.562;2023-07-30T00:27:15;2.47;;;2.30;;
36585;SDS011;22591;48.314;11.562;2023-07-30T00:29:41;4.88;;;2.72;;
36585;SDS011;22591;48.314;11.562;2023-07-30T00:32:06;2.20;;;2.10;;
36585;SDS011;22591;48.314;11.562;2023-07-30T00:34:32;2.42;;;2.22;;
36585;SDS011;22591;48.314;11.562;2023-07-30T00:36:58;2.55;;;2.30;;
36585;SDS011;22591;48.314;11.562;2023-07-30T00:39:23;2.42;;;2.33;;
36585;SDS011;22591;48.314;11.562;2023-07-30T00:41:49;2.33;;;2.17;;
36585;SDS011;22591;48.314;11.562;2023-07-30T00:44:15;2.70;;;2.50;;
36585;SDS011;22591;48.314;11.562;2023-07-30T00:46:41;2.78;;;2.10;;
36585;SDS011;22591;48.314;11.562;2023-07-30T00:49:06;2.20;;;2.10;;
36585;SDS011;22591;48.314;11.562;2023-07-30T00:51:33;2.60;;;2.40;;
36585;SDS011;22591;48.314;11.562;2023-07-30T00:53:59;2.30;;;2.10;;
36585;SDS011;22591;48.314;11.562;2023-07-30T00:56:25;3.45;;;2.40;;
36585;SDS011;22591;48.314;11.562;2023-07-30T00:58:51;3.03;;;2.53;;
36585;SDS011;22591;48.314;11.562;2023-07-30T01:01:17;2.60;;;2.40;;
36585;SDS011;22591;48.314;11.562;2023-07-30T01:03:43;2.17;;;2.08;;
36585;SDS011;22591;48.314;11.562;2023-07-30T01:06:09;2.20;;;2.10;;
36585;SDS011;22591;48.314;11.562;2023-07-30T01:08:35;2.45;;;2.35;;
36585;SDS011;22591;48.314;11.562;2023-07-30T01:11:01;2.90;;;2.70;;
36585;SDS011;22591;48.314;11.562;2023-07-30T01:13:29;2.55;;;2.17;;
36585;SDS011;22591;48.314;11.562;2023-07-30T01:15:56;2.63;;;2.42;;
36585;SDS011;22591;48.314;11.562;2023-07-30T01:18:22;2.15;;;2.05;;
36585;SDS011;22591;48.314;11.562;2023-07-30T01:20:47;2.72;;;2.28;;
36585;SDS011;22591;48.314;11.562;2023-07-30T01:23:13;2.20;;;2.10;;
36585;SDS011;22591;48.314;11.562;2023-07-30T01:25:39;2.10;;;2.00;;
36585;SDS011;22591;48.314;11.562;2023-07-30T01:28:06;5.88;;;2.08;;
36585;SDS011;22591;48.314;11.562;2023-07-30T01:30:38;2.35;;;2.08;;
36585;SDS011;22591;48.314;11.562;2023-07-30T01:33:07;2.25;;;2.05;;
36585;SDS011;22591;48.314;11.562;2023-07-30T01:35:34;2.95;;;2.28;;
36585;SDS011;22591;48.314;11.562;2023-07-30T01:38:03;2.50;;;2.30;;
36585;SDS011;22591;48.314;11.562;2023-07-30T01:40:30;2.28;;;2.17;;
36585;SDS011;22591;48.314;11.562;2023-07-30T01:42:57;2.75;;;2.22;;
36585;SDS011;22591;48.314;11.562;2023-07-30T01:45:22;2.60;;;2.40;;
36585;SDS011;22591;48.314;11.562;2023-07-30T01:47:48;1.77;;;1.67;;
36585;SDS011;22591;48.314;11.562;2023-07-30T01:50:13;2.85;;;2.15;;
36585;SDS011;22591;48.314;11.562;2023-07-30T01:52:39;2.13;;;2.03;;
36585;SDS011;22591;48.314;11.562;2023-07-30T01:55:04;3.97;;;2.25;;
36585;SDS011;22591;48.314;11.562;2023-07-30T01:57:30;4.85;;;2.10;;
36585;SDS011;22591;48.314;11.562;2023-07-30T01:59:56;2.30;;;2.20;;
36585;SDS011;22591;48.314;11.562;2023-07-30T02:02:22;2.17;;;2.00;;
36585;SDS011;22591;48.314;11.562;2023-07-30T02:04:47;2.08;;;1.98;;
36585;SDS011;22591;48.314;11.562;2023-07-30T02:07:13;1.77;;;1.67;;
36585;SDS011;22591;48.314;11.562;2023-07-30T02:09:38;3.40;;;2.30;;
36585;SDS011;22591;48.314;11.562;2023-07-30T02:12:04;1.85;;;1.75;;
36585;SDS011;22591;48.314;11.562;2023-07-30T02:14:29;2.00;;;1.90;;
36585;SDS011;22591;48.314;11.562;2023-07-30T02:16:55;1.98;;;1.88;;
36585;SDS011;22591;48.314;11.562;2023-07-30T02:19:20;1.92;;;1.83;;
36585;SDS011;22591;48.314;11.562;2023-07-30T02:21:46;2.00;;;1.90;;
36585;SDS011;22591;48.314;11.562;2023-07-30T02:24:12;3.03;;;2.20;;
36585;SDS011;22591;48.314;11.562;2023-07-30T02:26:37;1.88;;;1.77;;
36585;SDS011;22591;48.314;11.562;2023-07-30T02:29:03;2.63;;;2.33;;
36585;SDS011;22591;48.314;11.562;2023-07-30T02:31:29;5.35;;;3.80;;
36585;SDS011;22591;48.314;11.562;2023-07-30T02:33:55;6.93;;;2.33;;
36585;SDS011;22591;48.314;11.562;2023-07-30T02:36:21;2.50;;;2.40;;
36585;SDS011;22591;48.314;11.562;2023-07-30T02:38:47;2.38;;;2.17;;
36585;SDS011;22591;48.314;11.562;2023-07-30T02:41:13;4.88;;;2.90;;
36585;SDS011;22591;48.314;11.562;2023-07-30T02:43:38;3.00;;;2.80;;
36585;SDS011;22591;48.314;11.562;2023-07-30T02:46:04;3.20;;;3.00;;
36585;SDS011;22591;48.314;11.562;2023-07-30T02:48:31;8.02;;;3.00;;
36585;SDS011;22591;48.314;11.562;2023-07-30T02:50:57;2.97;;;2.63;;
36585;SDS011;22591;48.314;11.562;2023-07-30T02:53:23;2.58;;;2.40;;
36585;SDS011;22591;48.314;11.562;2023-07-30T02:55:48;3.10;;;2.90;;
36585;SDS011;22591;48.314;11.562;2023-07-30T02:58:14;3.65;;;3.00;;
36585;SDS011;22591;48.314;11.562;2023-07-30T03:00:39;9.40;;;3.53;;
36585;SDS011;22591;48.314;11.562;2023-07-30T03:03:05;3.95;;;3.63;;
36585;SDS011;22591;48.314;11.562;2023-07-30T03:05:31;3.53;;;3.22;;
36585;SDS011;22591;48.314;11.562;2023-07-30T03:07:56;4.53;;;3.42;;
36585;SDS011;22591;48.314;11.562;2023-07-30T03:10:22;3.50;;;3.30;;
36585;SDS011;22591;48.314;11.562;2023-07-30T03:12:47;4.63;;;3.47;;
36585;SDS011;22591;48.314;11.562;2023-07-30T03:15:13;4.30;;;3.97;;
36585;SDS011;22591;48.314;11.562;2023-07-30T03:17:38;3.17;;;2.97;;
36585;SDS011;22591;48.314;11.562;2023-07-30T03:20:04;4.25;;;3.88;;
36585;SDS011;22591;48.314;11.562;2023-07-30T03:22:30;3.53;;;3.33;;
36585;SDS011;22591;48.314;11.562;2023-07-30T03:24:55;4.85;;;3.63;;
36585;SDS011;22591;48.314;11.562;2023-07-30T03:27:21;4.07;;;3.78;;
36585;SDS011;22591;48.314;11.562;2023-07-30T03:29:47;3.85;;;3.55;;
36585;SDS011;22591;48.314;11.562;2023-07-30T03:32:12;4.38;;;3.97;;
36585;SDS011;22591;48.314;11.562;2023-07-30T03:34:38;4.05;;;3.85;;
36585;SDS011;22591;48.314;11.562;2023-07-30T03:37:03;3.60;;;3.40;;
36585;SDS011;22591;48.314;11.562;2023-07-30T03:39:29;5.05;;;3.95;;
36585;SDS011;22591;48.314;11.562;2023-07-30T03:41:54;5.72;;;4.10;;
36585;SDS011;22591;48.314;11.562;2023-07-30T03:44:20;4.38;;;4.07;;
36585;SDS011;22591;48.314;11.562;2023-07-30T03:46:45;4.47;;;4.18;;
36585;SDS011;22591;48.314;11.562;2023-07-30T03:49:11;4.45;;;4.10;;
36585;SDS011;22591;48.314;11.562;2023-07-30T03:51:37;4.30;;;4.00;;
36585;SDS011;22591;48.314;11.562;2023-07-30T03:54:03;5.43;;;4.88;;
36585;SDS011;22591;48.314;11.562;2023-07-30T03:56:29;4.38;;;4.15;;
36585;SDS011;22591;48.314;11.562;2023-07-30T03:58:55;4.35;;;3.97;;
36585;SDS011;22591;48.314;11.562;2023-07-30T04:01:21;4.72;;;4.32;;
36585;SDS011;22591;48.314;11.562;2023-07-30T04:03:46;4.65;;;4.35;;
36585;SDS011;22591;48.314;11.562;2023-07-30T04:06:12;5.95;;;4.50;;
36585;SDS011;22591;48.314;11.562;2023-07-30T04:08:37;4.90;;;4.60;;
36585;SDS011;22591;48.314;11.562;2023-07-30T04:11:03;4.90;;;4.60;;
36585;SDS011;22591;48.314;11.562;2023-07-30T04:13:28;5.10;;;4.65;;
36585;SDS011;22591;48.314;11.562;2023-07-30T04:15:54;5.07;;;4.57;;
36585;SDS011;22591;48.314;11.562;2023-07-30T04:18:19;5.22;;;4.70;;
36585;SDS011;22591;48.314;11.562;2023-07-30T04:20:45;4.47;;;4.22;;
36585;SDS011;22591;48.314;11.562;2023-07-30T04:23:11;4.60;;;4.30;;
36585;SDS011;22591;48.314;11.562;2023-07-30T04:25:36;5.00;;;4.70;;
36585;SDS011;22591;48.314;11.562;2023-07-30T04:28:02;4.88;;;4.47;;
36585;SDS011;22591;48.314;11.562;2023-07-30T04:30:27;6.13;;;4.43;;
36585;SDS011;22591;48.314;11.562;2023-07-30T04:32:53;4.35;;;4.13;;
36585;SDS011;22591;48.314;11.562;2023-07-30T04:35:18;4.15;;;3.70;;
36585;SDS011;22591;48.314;11.562;2023-07-30T04:37:44;4.40;;;4.07;;
36585;SDS011;22591;48.314;11.562;2023-07-30T04:40:09;4.72;;;4.43;;
36585;SDS011;22591;48.314;11.562;2023-07-30T04:42:35;4.70;;;4.30;;
36585;SDS011;22591;48.314;11.562;2023-07-30T04:45:01;5.50;;;3.83;;
36585;SDS011;22591;48.314;11.562;2023-07-30T04:47:27;4.10;;;3.80;;
36585;SDS011;22591;48.314;11.562;2023-07-30T04:49:52;3.75;;;3.55;;
36585;SDS011;22591;48.314;11.562;2023-07-30T04:52:18;3.85;;;3.55;;
36585;SDS011;22591;48.314;11.562;2023-07-30T04:54:44;4.00;;;3.72;;
36585;SDS011;22591;48.314;11.562;2023-07-30T04:57:09;4.38;;;3.70;;
36585;SDS011;22591;48.314;11.562;2023-07-30T04:59:35;3.88;;;3.58;;
36585;SDS011;22591;48.314;11.562;2023-07-30T05:02:01;3.30;;;3.10;;
36585;SDS011;22591;48.314;11.562;2023-07-30T05:04:26;3.15;;;2.95;;
36585;SDS011;22591;48.314;11.562;2023-07-30T05:06:52;2.90;;;2.70;;
36585;SDS011;22591;48.314;11.562;2023-07-30T05:09:17;3.47;;;3.17;;
36585;SDS011;22591;48.314;11.562;2023-07-30T05:11:43;3.63;;;3.33;;
36585;SDS011;22591;48.314;11.562;2023-07-30T05:14:08;3.15;;;2.95;;
36585;SDS011;22591;48.314;11.562;2023-07-30T05:16:34;2.50;;;2.40;;
36585;SDS011;22591;48.314;11.562;2023-07-30T05:19:01;4.93;;;3.13;;
36585;SDS011;22591;48.314;11.562;2023-07-30T05:21:26;2.75;;;2.65;;
36585;SDS011;22591;48.314;11.562;2023-07-30T05:23:52;3.03;;;2.83;;
36585;SDS011;22591;48.314;11.562;2023-07-30T05:26:18;3.30;;;3.10;;
36585;SDS011;22591;48.314;11.562;2023-07-30T05:28:43;3.28;;;3.08;;
36585;SDS011;22591;48.314;11.562;2023-07-30T05:31:09;2.83;;;2.63;;
36585;SDS011;22591;48.314;11.562;2023-07-30T05:33:34;2.80;;;2.70;;
36585;SDS011;22591;48.314;11.562;2023-07-30T05:36:00;3.88;;;2.70;;
36585;SDS011;22591;48.314;11.562;2023-07-30T05:38:25;3.25;;;2.97;;
36585;SDS011;22591;48.314;11.562;2023-07-30T05:40:51;4.78;;;2.95;;
36585;SDS011;22591;48.314;11.562;2023-07-30T05:43:16;3.25;;;3.05;;
36585;SDS011;22591;48.314;11.562;2023-07-30T05:45:42;2.50;;;2.30;;
36585;SDS011;22591;48.314;11.562;2023-07-30T05:48:08;3.33;;;3.03;;
36585;SDS011;22591;48.314;11.562;2023-07-30T05:50:34;2.92;;;2.72;;
36585;SDS011;22591;48.314;11.562;2023-07-30T05:52:59;2.88;;;2.50;;
36585;SDS011;22591;48.314;11.562;2023-07-30T05:55:25;5.25;;;2.70;;
36585;SDS011;22591;48.314;11.562;2023-07-30T05:57:50;2.90;;;2.70;;
36585;SDS011;22591;48.314;11.562;2023-07-30T06:00:18;2.58;;;2.47;;
36585;SDS011;22591;48.314;11.562;2023-07-30T06:02:44;2.83;;;2.63;;
36585;SDS011;22591;48.314;11.562;2023-07-30T06:05:09;3.38;;;2.70;;
36585;SDS011;22591;48.314;11.562;2023-07-30T06:07:35;2.58;;;2.38;;
36585;SDS011;22591;48.314;11.562;2023-07-30T06:10:00;2.38;;;2.28;;
36585;SDS011;22591;48.314;11.562;2023-07-30T06:12:26;2.50;;;2.40;;
36585;SDS011;22591;48.314;11.562;2023-07-30T06:14:51;2.67;;;2.47;;
36585;SDS011;22591;48.314;11.562;2023-07-30T06:17:17;3.03;;;2.83;;
36585;SDS011;22591;48.314;11.562;2023-07-30T06:19:42;2.45;;;2.35;;
36585;SDS011;22591;48.314;11.562;2023-07-30T06:22:08;2.65;;;2.45;;
36585;SDS011;22591;48.314;11.562;2023-07-30T06:24:33;2.75;;;2.55;;
36585;SDS011;22591;48.314;11.562;2023-07-30T06:26:59;4.15;;;2.53;;
36585;SDS011;22591;48.314;11.562;2023-07-30T06:29:24;5.78;;;2.17;;
36585;SDS011;22591;48.314;11.562;2023-07-30T06:31:50;2.45;;;2.35;;
36585;SDS011;22591;48.314;11.562;2023-07-30T06:34:16;2.33;;;2.22;;
36585;SDS011;22591;48.314;11.562;2023-07-30T06:36:41;3.95;;;2.00;;
36585;SDS011;22591;48.314;11.562;2023-07-30T06:39:07;3.10;;;2.40;;
36585;SDS011;22591;48.314;11.562;2023-07-30T06:41:32;2.40;;;2.20;;
36585;SDS011;22591;48.314;11.562;2023-07-30T06:43:58;2.42;;;2.13;;
36585;SDS011;22591;48.314;11.562;2023-07-30T06:46:24;1.98;;;1.88;;
36585;SDS011;22591;48.314;11.562;2023-07-30T06:48:49;1.83;;;1.73;;
36585;SDS011;22591;48.314;11.562;2023-07-30T06:51:17;2.00;;;1.90;;
36585;SDS011;22591;48.314;11.562;2023-07-30T06:53:44;2.20;;;2.10;;
36585;SDS011;22591;48.314;11.562;2023-07-30T06:56:09;2.53;;;2.20;;
36585;SDS011;22591;48.314;11.562;2023-07-30T06:58:35;2.03;;;1.88;;
36585;SDS011;22591;48.314;11.562;2023-07-30T07:01:00;2.20;;;2.10;;
36585;SDS011;22591;48.314;11.562;2023-07-30T07:03:26;2.60;;;2.40;;
36585;SDS011;22591;48.314;11.562;2023-07-30T07:05:52;2.15;;;2.05;;
36585;SDS011;22591;48.314;11.562;2023-07-30T07:08:21;2.00;;;1.90;;
36585;SDS011;22591;48.314;11.562;2023-07-30T07:10:47;2.50;;;1.88;;
36585;SDS011;22591;48.314;11.562;2023-07-30T07:13:13;2.38;;;2.08;;
36585;SDS011;22591;48.314;11.562;2023-07-30T07:15:42;1.88;;;1.65;;
36585;SDS011;22591;48.314;11.562;2023-07-30T07:18:08;5.53;;;2.08;;
36585;SDS011;22591;48.314;11.562;2023-07-30T07:20:35;1.83;;;1.73;;
36585;SDS011;22591;48.314;11.562;2023-07-30T07:23:00;2.85;;;1.80;;
36585;SDS011;22591;48.314;11.562;2023-07-30T07:25:26;2.15;;;2.05;;
36585;SDS011;22591;48.314;11.562;2023-07-30T07:27:51;2.85;;;1.90;;
36585;SDS011;22591;48.314;11.562;2023-07-30T07:30:17;4.55;;;3.00;;
36585;SDS011;22591;48.314;11.562;2023-07-30T07:32:43;2.20;;;2.10;;
36585;SDS011;22591;48.314;11.562;2023-07-30T07:35:08;2.00;;;1.90;;
36585;SDS011;22591;48.314;11.562;2023-07-30T07:37:34;2.33;;;1.65;;
36585;SDS011;22591;48.314;11.562;2023-07-30T07:39:59;1.83;;;1.65;;
36585;SDS011;22591;48.314;11.562;2023-07-30T07:42:25;1.90;;;1.80;;
36585;SDS011;22591;48.314;11.562;2023-07-30T07:44:51;3.88;;;2.20;;
36585;SDS011;22591;48.314;11.562;2023-07-30T07:47:16;2.67;;;1.73;;
36585;SDS011;22591;48.314;11.562;2023-07-30T07:49:42;1.92;;;1.83;;
36585;SDS011;22591;48.314;11.562;2023-07-30T07:52:07;2.00;;;1.90;;
36585;SDS011;22591;48.314;11.562;2023-07-30T07:54:33;1.73;;;1.60;;
36585;SDS011;22591;48.314;11.562;2023-07-30T07:56:59;1.70;;;1.60;;
36585;SDS011;22591;48.314;11.562;2023-07-30T07:59:25;2.92;;;1.80;;
36585;SDS011;22591;48.314;11.562;2023-07-30T08:01:52;3.17;;;1.95;;
36585;SDS011;22591;48.314;11.562;2023-07-30T08:04:18;1.90;;;1.80;;
36585;SDS011;22591;48.314;11.562;2023-07-30T08:06:46;2.17;;;2.08;;
36585;SDS011;22591;48.314;11.562;2023-07-30T08:09:11;3.28;;;2.10;;
36585;SDS011;22591;48.314;11.562;2023-07-30T08:11:37;2.30;;;2.10;;
36585;SDS011;22591;48.314;11.562;2023-07-30T08:14:03;3.35;;;2.28;;
36585;SDS011;22591;48.314;11.562;2023-07-30T08:16:28;2.47;;;2.05;;
36585;SDS011;22591;48.314;11.562;2023-07-30T08:18:53;1.83;;;1.73;;
36585;SDS011;22591;48.314;11.562;2023-07-30T08:21:20;2.05;;;1.92;;
36585;SDS011;22591;48.314;11.562;2023-07-30T08:23:46;3.95;;;1.85;;
36585;SDS011;22591;48.314;11.562;2023-07-30T08:26:11;1.90;;;1.75;;
36585;SDS011;22591;48.314;11.562;2023-07-30T08:28:37;2.28;;;2.00;;
36585;SDS011;22591;48.314;11.562;2023-07-30T08:31:02;2.25;;;1.80;;
36585;SDS011;22591;48.314;11.562;2023-07-30T08:33:28;2.00;;;1.90;;
36585;SDS011;22591;48.314;11.562;2023-07-30T08:35:55;2.30;;;1.80;;
36585;SDS011;22591;48.314;11.562;2023-07-30T08:38:21;1.88;;;1.77;;
36585;SDS011;22591;48.314;11.562;2023-07-30T08:40:47;1.83;;;1.73;;
36585;SDS011;22591;48.314;11.562;2023-07-30T08:43:12;1.90;;;1.80;;
36585;SDS011;22591;48.314;11.562;2023-07-30T08:45:38;1.77;;;1.60;;
36585;SDS011;22591;48.314;11.562;2023-07-30T08:48:03;1.85;;;1.75;;
36585;SDS011;22591;48.314;11.562;2023-07-30T08:50:29;1.80;;;1.70;;
36585;SDS011;22591;48.314;11.562;2023-07-30T08:52:55;3.88;;;1.92;;
36585;SDS011;22591;48.314;11.562;2023-07-30T08:55:24;1.90;;;1.80;;
36585;SDS011;22591;48.314;11.562;2023-07-30T08:57:52;2.17;;;1.88;;
36585;SDS011;22591;48.314;11.562;2023-07-30T09:00:19;1.90;;;1.75;;
36585;SDS011;22591;48.314;11.562;2023-07-30T09:05:23;2.30;;;2.20;;
36585;SDS011;22591;48.314;11.562;2023-07-30T09:07:49;1.50;;;1.40;;
36585;SDS011;22591;48.314;11.562;2023-07-30T09:10:15;2.20;;;1.85;;
36585;SDS011;22591;48.314;11.562;2023-07-30T09:12:41;2.95;;;2.30;;
36585;SDS011;22591;48.314;11.562;2023-07-30T09:15:06;3.38;;;1.95;;
36585;SDS011;22591;48.314;11.562;2023-07-30T09:17:33;2.08;;;1.98;;
36585;SDS011;22591;48.314;11.562;2023-07-30T09:19:59;1.98;;;1.88;;
36585;SDS011;22591;48.314;11.562;2023-07-30T09:22:26;2.35;;;2.10;;
36585;SDS011;22591;48.314;11.562;2023-07-30T09:24:56;1.90;;;1.80;;
36585;SDS011;22591;48.314;11.562;2023-07-30T09:27:23;3.38;;;1.88;;
36585;SDS011;22591;48.314;11.562;2023-07-30T09:29:56;2.00;;;1.90;;
36585;SDS011;22591;48.314;11.562;2023-07-30T09:32:26;2.10;;;2.00;;
36585;SDS011;22591;48.314;11.562;2023-07-30T09:34:52;1.80;;;1.70;;
36585;SDS011;22591;48.314;11.562;2023-07-30T09:37:18;4.90;;;1.90;;
36585;SDS011;22591;48.314;11.562;2023-07-30T09:39:43;2.03;;;1.85;;
36585;SDS011;22591;48.314;11.562;2023-07-30T09:42:12;2.13;;;2.00;;
36585;SDS011;22591;48.314;11.562;2023-07-30T09:44:37;2.53;;;1.58;;
36585;SDS011;22591;48.314;11.562;2023-07-30T09:47:04;1.58;;;1.48;;
36585;SDS011;22591;48.314;11.562;2023-07-30T09:49:34;1.48;;;1.40;;
36585;SDS011;22591;48.314;11.562;2023-07-30T09:52:01;1.63;;;1.52;;
36585;SDS011;22591;48.314;11.562;2023-07-30T09:54:28;6.93;;;1.63;;
36585;SDS011;22591;48.314;11.562;2023-07-30T09:56:55;3.13;;;1.70;;
36585;SDS011;22591;48.314;11.562;2023-07-30T09:59:21;1.45;;;1.35;;
36585;SDS011;22591;48.314;11.562;2023-07-30T10:01:48;1.70;;;1.60;;
36585;SDS011;22591;48.314;11.562;2023-07-30T10:04:14;1.23;;;1.23;;
36585;SDS011;22591;48.314;11.562;2023-07-30T10:06:47;2.17;;;1.40;;
36585;SDS011;22591;48.314;11.562;2023-07-30T10:09:23;1.30;;;1.30;;
36585;SDS011;22591;48.314;11.562;2023-07-30T10:11:53;1.70;;;1.60;;
36585;SDS011;22591;48.314;11.562;2023-07-30T10:14:20;2.47;;;1.35;;
36585;SDS011;22591;48.314;11.562;2023-07-30T10:16:52;1.30;;;1.30;;
36585;SDS011;22591;48.314;11.562;2023-07-30T10:19:22;2.22;;;1.70;;
36585;SDS011;22591;48.314;11.562;2023-07-30T10:21:53;1.40;;;1.30;;
36585;SDS011;22591;48.314;11.562;2023-07-30T10:24:55;1.75;;;1.63;;
36585;SDS011;22591;48.314;11.562;2023-07-30T10:27:38;2.88;;;1.58;;
36585;SDS011;22591;48.314;11.562;2023-07-30T10:30:12;1.80;;;1.70;;
36585;SDS011;22591;48.314;11.562;2023-07-30T10:32:40;1.58;;;1.48;;
36585;SDS011;22591;48.314;11.562;2023-07-30T10:35:07;1.40;;;1.30;;
36585;SDS011;22591;48.314;11.562;2023-07-30T10:37:33;1.48;;;1.38;;
36585;SDS011;22591;48.314;11.562;2023-07-30T10:39:59;1.60;;;1.50;;
36585;SDS011;22591;48.314;11.562;2023-07-30T10:42:32;1.35;;;1.30;;
36585;SDS011;22591;48.314;11.562;2023-07-30T10:44:59;1.73;;;1.63;;
36585;SDS011;22591;48.314;11.562;2023-07-30T10:47:26;2.00;;;1.45;;
36585;SDS011;22591;48.314;11.562;2023-07-30T10:49:52;1.40;;;1.38;;
36585;SDS011;22591;48.314;11.562;2023-07-30T10:52:19;1.83;;;1.50;;
36585;SDS011;22591;48.314;11.562;2023-07-30T10:54:48;1.60;;;1.50;;
36585;SDS011;22591;48.314;11.562;2023-07-30T10:57:14;2.95;;;1.20;;
36585;SDS011;22591;48.314;11.562;2023-07-30T10:59:39;1.60;;;1.50;;
36585;SDS011;22591;48.314;11.562;2023-07-30T11:02:06;2.78;;;1.73;;
36585;SDS011;22591;48.314;11.562;2023-07-30T11:04:34;1.27;;;1.17;;
36585;SDS011;22591;48.314;11.562;2023-07-30T11:07:00;2.25;;;1.35;;
36585;SDS011;22591;48.314;11.562;2023-07-30T11:09:26;1.88;;;1.77;;
36585;SDS011;22591;48.314;11.562;2023-07-30T11:11:54;1.80;;;1.70;;
36585;SDS011;22591;48.314;11.562;2023-07-30T11:14:21;1.45;;;1.35;;
36585;SDS011;22591;48.314;11.562;2023-07-30T11:16:56;1.38;;;1.27;;
36585;SDS011;22591;48.314;11.562;2023-07-30T11:19:25;1.50;;;1.40;;
36585;SDS011;22591;48.314;11.562;2023-07-30T11:21:52;1.10;;;1.10;;
36585;SDS011;22591;48.314;11.562;2023-07-30T11:24:19;3.85;;;1.30;;
36585;SDS011;22591;48.314;11.562;2023-07-30T11:26:46;1.10;;;1.10;;
36585;SDS011;22591;48.314;11.562;2023-07-30T11:29:22;1.33;;;1.33;;
36585;SDS011;22591;48.314;11.562;2023-07-30T11:31:48;1.58;;;1.30;;
36585;SDS011;22591;48.314;11.562;2023-07-30T11:34:13;1.60;;;1.50;;
36585;SDS011;22591;48.314;11.562;2023-07-30T11:36:40;1.67;;;1.58;;
36585;SDS011;22591;48.314;11.562;2023-07-30T11:39:07;1.30;;;1.30;;
36585;SDS011;22591;48.314;11.562;2023-07-30T11:41:33;2.83;;;1.35;;
36585;SDS011;22591;48.314;11.562;2023-07-30T11:43:59;1.30;;;1.23;;
36585;SDS011;22591;48.314;11.562;2023-07-30T11:46:24;2.40;;;1.20;;
36585;SDS011;22591;48.314;11.562;2023-07-30T11:48:51;2.67;;;1.63;;
36585;SDS011;22591;48.314;11.562;2023-07-30T11:51:25;3.35;;;1.67;;
36585;SDS011;22591;48.314;11.562;2023-07-30T11:53:52;1.85;;;1.75;;
36585;SDS011;22591;48.314;11.562;2023-07-30T11:56:20;1.67;;;1.45;;
36585;SDS011;22591;48.314;11.562;2023-07-30T11:58:53;1.57;;;1.40;;
36585;SDS011;22591;48.314;11.562;2023-07-30T12:01:20;2.13;;;1.33;;
36585;SDS011;22591;48.314;11.562;2023-07-30T12:03:47;1.58;;;1.48;;
36585;SDS011;22591;48.314;11.562;2023-07-30T12:06:13;1.55;;;1.45;;
36585;SDS011;22591;48.314;11.562;2023-07-30T12:08:38;1.60;;;1.50;;
36585;SDS011;22591;48.314;11.562;2023-07-30T12:11:05;1.33;;;1.33;;
36585;SDS011;22591;48.314;11.562;2023-07-30T12:13:32;1.50;;;1.40;;
36585;SDS011;22591;48.314;11.562;2023-07-30T12:15:58;1.88;;;1.27;;
36585;SDS011;22591;48.314;11.562;2023-07-30T12:18:24;1.40;;;1.30;;
36585;SDS011;22591;48.314;11.562;2023-07-30T12:20:51;1.35;;;1.25;;
36585;SDS011;22591;48.314;11.562;2023-07-30T12:23:18;1.48;;;1.38;;
36585;SDS011;22591;48.314;11.562;2023-07-30T12:25:47;1.70;;;1.60;;
36585;SDS011;22591;48.314;11.562;2023-07-30T12:28:12;1.63;;;1.52;;
36585;SDS011;22591;48.314;11.562;2023-07-30T12:30:38;2.28;;;1.30;;
36585;SDS011;22591;48.314;11.562;2023-07-30T12:33:04;1.63;;;1.52;;
36585;SDS011;22591;48.314;11.562;2023-07-30T12:35:31;1.70;;;1.60;;
36585;SDS011;22591;48.314;11.562;2023-07-30T12:37:57;1.75;;;1.40;;
36585;SDS011;22591;48.314;11.562;2023-07-30T12:40:23;1.45;;;1.30;;
36585;SDS011;22591;48.314;11.562;2023-07-30T12:42:48;1.70;;;1.55;;
36585;SDS011;22591;48.314;11.562;2023-07-30T12:45:14;1.50;;;1.40;;
36585;SDS011;22591;48.314;11.562;2023-07-30T12:47:40;2.63;;;1.50;;
36585;SDS011;22591;48.314;11.562;2023-07-30T12:50:05;1.40;;;1.30;;
36585;SDS011;22591;48.314;11.562;2023-07-30T12:52:32;1.70;;;1.60;;
36585;SDS011;22591;48.314;11.562;2023-07-30T12:54:58;1.52;;;1.42;;
36585;SDS011;22591;48.314;11.562;2023-07-30T12:57:24;1.73;;;1.63;;
36585;SDS011;22591;48.314;11.562;2023-07-30T12:59:49;1.60;;;1.50;;
36585;SDS011;22591;48.314;11.562;2023-07-30T13:02:15;1.70;;;1.60;;
36585;SDS011;22591;48.314;11.562;2023-07-30T13:04:40;1.83;;;1.73;;
36585;SDS011;22591;48.314;11.562;2023-07-30T13:07:06;2.85;;;2.00;;
36585;SDS011;22591;48.314;11.562;2023-07-30T13:09:31;1.83;;;1.73;;
36585;SDS011;22591;48.314;11.562;2023-07-30T13:11:57;1.60;;;1.50;;
36585;SDS011;22591;48.314;11.562;2023-07-30T13:14:23;1.58;;;1.45;;
36585;SDS011;22591;48.314;11.562;2023-07-30T13:16:48;2.38;;;1.60;;
36585;SDS011;22591;48.314;11.562;2023-07-30T13:19:14;1.80;;;1.70;;
36585;SDS011;22591;48.314;11.562;2023-07-30T13:21:39;1.60;;;1.50;;
36585;SDS011;22591;48.314;11.562;2023-07-30T13:24:05;3.28;;;1.50;;
36585;SDS011;22591;48.314;11.562;2023-07-30T13:26:30;1.55;;;1.45;;
36585;SDS011;22591;48.314;11.562;2023-07-30T13:28:56;1.77;;;1.40;;
36585;SDS011;22591;48.314;11.562;2023-07-30T13:31:21;2.00;;;1.77;;
36585;SDS011;22591;48.314;11.562;2023-07-30T13:33:47;1.27;;;1.27;;
36585;SDS011;22591;48.314;11.562;2023-07-30T13:36:13;2.85;;;1.67;;
36585;SDS011;22591;48.314;11.562;2023-07-30T13:38:39;1.35;;;1.35;;
36585;SDS011;22591;48.314;11.562;2023-07-30T13:41:07;2.97;;;1.40;;
36585;SDS011;22591;48.314;11.562;2023-07-30T13:43:33;1.65;;;1.55;;
36585;SDS011;22591;48.314;11.562;2023-07-30T13:45:58;2.88;;;1.85;;
36585;SDS011;22591;48.314;11.562;2023-07-30T13:48:24;1.60;;;1.50;;
36585;SDS011;22591;48.314;11.562;2023-07-30T13:50:50;1.50;;;1.40;;
36585;SDS011;22591;48.314;11.562;2023-07-30T13:53:16;1.67;;;1.58;;
36585;SDS011;22591;48.314;11.562;2023-07-30T13:55:42;1.40;;;1.30;;
36585;SDS011;22591;48.314;11.562;2023-07-30T13:58:08;1.30;;;1.30;;
36585;SDS011;22591;48.314;11.562;2023-07-30T14:00:34;1.13;;;1.13;;
36585;SDS011;22591;48.314;11.562;2023-07-30T14:02:59;1.60;;;1.45;;
36585;SDS011;22591;48.314;11.562;2023-07-30T14:05:25;1.65;;;1.55;;
36585;SDS011;22591;48.314;11.562;2023-07-30T14:07:53;1.85;;;1.75;;
36585;SDS011;22591;48.314;11.562;2023-07-30T14:10:21;1.77;;;1.45;;
36585;SDS011;22591;48.314;11.562;2023-07-30T14:12:50;3.38;;;1.55;;
36585;SDS011;22591;48.314;11.562;2023-07-30T14:15:15;2.38;;;1.15;;
36585;SDS011;22591;48.314;11.562;2023-07-30T14:17:41;1.40;;;1.30;;
36585;SDS011;22591;48.314;11.562;2023-07-30T14:20:07;3.20;;;1.58;;
36585;SDS011;22591;48.314;11.562;2023-07-30T14:22:34;1.75;;;1.65;;
36585;SDS011;22591;48.314;11.562;2023-07-30T14:25:00;1.50;;;1.40;;
36585;SDS011;22591;48.314;11.562;2023-07-30T14:27:26;3.58;;;1.70;;
36585;SDS011;22591;48.314;11.562;2023-07-30T14:29:51;1.60;;;1.50;;